sensor_id;sensor_type;location;lat;lon;timestamp;P1;durP1;ratioP1;P2;durP2;ratioP2
83835;SDS011;73859;40.830;43.828;2024-01-27T00:00:57;39.20;;;17.02;;
83835;SDS011;73859;40.830;43.828;2024-01-27T00:03:24;36.22;;;16.52;;
83835;SDS011;73859;40.830;43.828;2024-01-27T00:05:52;34.40;;;16.58;;
83835;SDS011;73859;40.830;43.828;2024-01-27T00:08:20;29.85;;;15.20;;
83835;SDS011;73859;40.830;43.828;2024-01-27T00:10:48;32.67;;;16.52;;
83835;SDS011;73859;40.830;43.828;2024-01-27T00:13:15;32.03;;;15.55;;
83835;SDS011;73859;40.830;43.828;2024-01-27T00:15:43;35.00;;;16.67;;
83835;SDS011;73859;40.830;43.828;2024-01-27T00:18:10;36.78;;;16.40;;
83835;SDS011;73859;40.830;43.828;2024-01-27T00:20:38;36.17;;;16.42;;
83835;SDS011;73859;40.830;43.828;2024-01-27T00:23:05;37.08;;;17.27;;
83835;SDS011;73859;40.830;43.828;2024-01-27T00:25:33;35.75;;;16.75;;
83835;SDS011;73859;40.830;43.828;2024-01-27T00:28:00;42.40;;;18.25;;
83835;SDS011;73859;40.830;43.828;2024-01-27T00:30:28;37.17;;;16.58;;
83835;SDS011;73859;40.830;43.828;2024-01-27T00:32:55;37.10;;;17.95;;
83835;SDS011;73859;40.830;43.828;2024-01-27T00:35:23;39.38;;;18.85;;
83835;SDS011;73859;40.830;43.828;2024-01-27T00:37:50;36.83;;;17.20;;
83835;SDS011;73859;40.830;43.828;2024-01-27T00:40:17;40.97;;;18.35;;
83835;SDS011;73859;40.830;43.828;2024-01-27T00:42:45;35.80;;;17.45;;
83835;SDS011;73859;40.830;43.828;2024-01-27T00:45:13;32.83;;;15.98;;
83835;SDS011;73859;40.830;43.828;2024-01-27T00:47:40;28.20;;;13.63;;
83835;SDS011;73859;40.830;43.828;2024-01-27T00:50:08;25.58;;;13.20;;
83835;SDS011;73859;40.830;43.828;2024-01-27T00:52:35;30.85;;;13.90;;
83835;SDS011;73859;40.830;43.828;2024-01-27T00:55:03;26.83;;;13.75;;
83835;SDS011;73859;40.830;43.828;2024-01-27T00:57:31;31.65;;;13.75;;
83835;SDS011;73859;40.830;43.828;2024-01-27T00:59:58;30.45;;;13.55;;
83835;SDS011;73859;40.830;43.828;2024-01-27T01:02:26;29.00;;;14.07;;
83835;SDS011;73859;40.830;43.828;2024-01-27T01:04:53;22.50;;;11.63;;
83835;SDS011;73859;40.830;43.828;2024-01-27T01:07:21;29.50;;;12.82;;
83835;SDS011;73859;40.830;43.828;2024-01-27T01:09:48;28.88;;;12.70;;
83835;SDS011;73859;40.830;43.828;2024-01-27T01:12:15;32.33;;;14.88;;
83835;SDS011;73859;40.830;43.828;2024-01-27T01:14:43;31.15;;;13.35;;
83835;SDS011;73859;40.830;43.828;2024-01-27T01:17:11;30.33;;;13.85;;
83835;SDS011;73859;40.830;43.828;2024-01-27T01:19:38;34.50;;;14.77;;
83835;SDS011;73859;40.830;43.828;2024-01-27T01:22:07;29.42;;;12.90;;
83835;SDS011;73859;40.830;43.828;2024-01-27T01:24:38;29.20;;;13.05;;
83835;SDS011;73859;40.830;43.828;2024-01-27T01:27:06;31.17;;;14.55;;
83835;SDS011;73859;40.830;43.828;2024-01-27T01:29:33;30.50;;;14.65;;
83835;SDS011;73859;40.830;43.828;2024-01-27T01:32:01;28.88;;;13.27;;
83835;SDS011;73859;40.830;43.828;2024-01-27T01:34:29;24.50;;;12.02;;
83835;SDS011;73859;40.830;43.828;2024-01-27T01:36:58;30.58;;;13.63;;
83835;SDS011;73859;40.830;43.828;2024-01-27T01:39:26;31.25;;;13.15;;
83835;SDS011;73859;40.830;43.828;2024-01-27T01:41:53;28.48;;;13.85;;
83835;SDS011;73859;40.830;43.828;2024-01-27T01:44:21;29.40;;;14.73;;
83835;SDS011;73859;40.830;43.828;2024-01-27T01:46:48;31.23;;;13.30;;
83835;SDS011;73859;40.830;43.828;2024-01-27T01:49:16;24.05;;;11.48;;
83835;SDS011;73859;40.830;43.828;2024-01-27T01:51:43;29.90;;;14.52;;
83835;SDS011;73859;40.830;43.828;2024-01-27T01:54:11;26.95;;;13.25;;
83835;SDS011;73859;40.830;43.828;2024-01-27T01:56:39;35.25;;;15.13;;
83835;SDS011;73859;40.830;43.828;2024-01-27T01:59:07;29.42;;;14.75;;
83835;SDS011;73859;40.830;43.828;2024-01-27T02:01:34;33.00;;;13.88;;
83835;SDS011;73859;40.830;43.828;2024-01-27T02:04:03;32.55;;;15.18;;
83835;SDS011;73859;40.830;43.828;2024-01-27T02:06:31;31.50;;;14.20;;
83835;SDS011;73859;40.830;43.828;2024-01-27T02:08:59;32.95;;;15.48;;
83835;SDS011;73859;40.830;43.828;2024-01-27T02:11:26;30.52;;;13.70;;
83835;SDS011;73859;40.830;43.828;2024-01-27T02:13:54;30.27;;;15.00;;
83835;SDS011;73859;40.830;43.828;2024-01-27T02:16:21;28.63;;;13.32;;
83835;SDS011;73859;40.830;43.828;2024-01-27T02:18:49;33.92;;;15.55;;
83835;SDS011;73859;40.830;43.828;2024-01-27T02:21:16;30.95;;;14.75;;
83835;SDS011;73859;40.830;43.828;2024-01-27T02:23:44;28.73;;;13.45;;
83835;SDS011;73859;40.830;43.828;2024-01-27T02:26:11;30.67;;;13.55;;
83835;SDS011;73859;40.830;43.828;2024-01-27T02:28:39;30.08;;;14.55;;
83835;SDS011;73859;40.830;43.828;2024-01-27T02:31:06;29.77;;;13.40;;
83835;SDS011;73859;40.830;43.828;2024-01-27T02:33:33;33.90;;;15.23;;
83835;SDS011;73859;40.830;43.828;2024-01-27T02:36:01;29.55;;;15.27;;
83835;SDS011;73859;40.830;43.828;2024-01-27T02:38:29;31.33;;;15.30;;
83835;SDS011;73859;40.830;43.828;2024-01-27T02:40:56;28.02;;;13.35;;
83835;SDS011;73859;40.830;43.828;2024-01-27T02:43:23;33.30;;;14.85;;
83835;SDS011;73859;40.830;43.828;2024-01-27T02:45:51;32.53;;;14.90;;
83835;SDS011;73859;40.830;43.828;2024-01-27T02:48:18;29.23;;;13.80;;
83835;SDS011;73859;40.830;43.828;2024-01-27T02:50:46;32.72;;;14.32;;
83835;SDS011;73859;40.830;43.828;2024-01-27T02:53:13;33.35;;;15.07;;
83835;SDS011;73859;40.830;43.828;2024-01-27T02:55:41;32.65;;;13.90;;
83835;SDS011;73859;40.830;43.828;2024-01-27T02:58:08;27.65;;;13.73;;
83835;SDS011;73859;40.830;43.828;2024-01-27T03:00:36;38.83;;;16.42;;
83835;SDS011;73859;40.830;43.828;2024-01-27T03:03:03;33.15;;;15.60;;
83835;SDS011;73859;40.830;43.828;2024-01-27T03:05:31;35.45;;;15.82;;
83835;SDS011;73859;40.830;43.828;2024-01-27T03:07:58;34.17;;;14.43;;
83835;SDS011;73859;40.830;43.828;2024-01-27T03:10:26;34.47;;;15.90;;
83835;SDS011;73859;40.830;43.828;2024-01-27T03:12:53;42.95;;;18.67;;
83835;SDS011;73859;40.830;43.828;2024-01-27T03:15:21;37.10;;;17.50;;
83835;SDS011;73859;40.830;43.828;2024-01-27T03:17:48;38.60;;;16.90;;
83835;SDS011;73859;40.830;43.828;2024-01-27T03:20:16;39.30;;;17.33;;
83835;SDS011;73859;40.830;43.828;2024-01-27T03:22:43;40.10;;;18.27;;
83835;SDS011;73859;40.830;43.828;2024-01-27T03:25:11;42.40;;;18.98;;
83835;SDS011;73859;40.830;43.828;2024-01-27T03:27:38;38.67;;;16.92;;
83835;SDS011;73859;40.830;43.828;2024-01-27T03:30:06;39.50;;;18.77;;
83835;SDS011;73859;40.830;43.828;2024-01-27T03:35:02;34.20;;;15.57;;
83835;SDS011;73859;40.830;43.828;2024-01-27T03:37:48;41.95;;;19.00;;
83835;SDS011;73859;40.830;43.828;2024-01-27T03:40:16;36.80;;;17.92;;
83835;SDS011;73859;40.830;43.828;2024-01-27T03:42:44;40.47;;;18.98;;
83835;SDS011;73859;40.830;43.828;2024-01-27T03:45:11;34.50;;;15.75;;
83835;SDS011;73859;40.830;43.828;2024-01-27T03:47:39;37.45;;;18.20;;
83835;SDS011;73859;40.830;43.828;2024-01-27T03:50:06;37.03;;;17.60;;
83835;SDS011;73859;40.830;43.828;2024-01-27T03:52:34;44.67;;;18.70;;
83835;SDS011;73859;40.830;43.828;2024-01-27T03:55:02;43.50;;;20.13;;
83835;SDS011;73859;40.830;43.828;2024-01-27T03:57:32;36.63;;;18.55;;
83835;SDS011;73859;40.830;43.828;2024-01-27T03:59:59;39.42;;;18.58;;
83835;SDS011;73859;40.830;43.828;2024-01-27T04:02:30;40.42;;;18.00;;
83835;SDS011;73859;40.830;43.828;2024-01-27T04:04:57;36.72;;;17.42;;
83835;SDS011;73859;40.830;43.828;2024-01-27T04:07:25;36.95;;;17.48;;
83835;SDS011;73859;40.830;43.828;2024-01-27T04:09:52;37.05;;;17.25;;
83835;SDS011;73859;40.830;43.828;2024-01-27T04:12:20;41.30;;;17.55;;
83835;SDS011;73859;40.830;43.828;2024-01-27T04:14:47;37.08;;;17.98;;
83835;SDS011;73859;40.830;43.828;2024-01-27T04:17:15;35.95;;;16.73;;
83835;SDS011;73859;40.830;43.828;2024-01-27T04:19:42;37.88;;;17.48;;
83835;SDS011;73859;40.830;43.828;2024-01-27T04:22:10;33.50;;;16.98;;
83835;SDS011;73859;40.830;43.828;2024-01-27T04:24:37;37.17;;;17.35;;
83835;SDS011;73859;40.830;43.828;2024-01-27T04:27:04;37.38;;;17.58;;
83835;SDS011;73859;40.830;43.828;2024-01-27T04:29:32;31.15;;;15.73;;
83835;SDS011;73859;40.830;43.828;2024-01-27T04:31:59;35.17;;;15.70;;
83835;SDS011;73859;40.830;43.828;2024-01-27T04:34:27;29.88;;;13.43;;
83835;SDS011;73859;40.830;43.828;2024-01-27T04:36:54;37.17;;;16.42;;
83835;SDS011;73859;40.830;43.828;2024-01-27T04:39:22;30.90;;;14.63;;
83835;SDS011;73859;40.830;43.828;2024-01-27T04:41:49;35.63;;;16.75;;
83835;SDS011;73859;40.830;43.828;2024-01-27T04:44:17;36.55;;;17.65;;
83835;SDS011;73859;40.830;43.828;2024-01-27T04:46:47;35.05;;;15.90;;
83835;SDS011;73859;40.830;43.828;2024-01-27T04:49:15;34.95;;;16.60;;
83835;SDS011;73859;40.830;43.828;2024-01-27T04:51:43;43.35;;;19.10;;
83835;SDS011;73859;40.830;43.828;2024-01-27T04:54:10;39.38;;;19.48;;
83835;SDS011;73859;40.830;43.828;2024-01-27T04:56:38;39.13;;;18.02;;
83835;SDS011;73859;40.830;43.828;2024-01-27T04:59:05;40.33;;;18.10;;
83835;SDS011;73859;40.830;43.828;2024-01-27T05:01:32;35.53;;;17.52;;
83835;SDS011;73859;40.830;43.828;2024-01-27T05:04:00;43.08;;;18.67;;
83835;SDS011;73859;40.830;43.828;2024-01-27T05:06:28;39.35;;;19.70;;
83835;SDS011;73859;40.830;43.828;2024-01-27T05:08:55;39.05;;;18.13;;
83835;SDS011;73859;40.830;43.828;2024-01-27T05:11:29;42.90;;;19.65;;
83835;SDS011;73859;40.830;43.828;2024-01-27T05:13:58;42.33;;;19.85;;
83835;SDS011;73859;40.830;43.828;2024-01-27T05:16:27;45.85;;;20.33;;
83835;SDS011;73859;40.830;43.828;2024-01-27T05:18:54;46.33;;;19.20;;
83835;SDS011;73859;40.830;43.828;2024-01-27T05:21:22;48.50;;;20.55;;
83835;SDS011;73859;40.830;43.828;2024-01-27T05:23:50;41.40;;;20.27;;
83835;SDS011;73859;40.830;43.828;2024-01-27T05:26:17;42.50;;;19.48;;
83835;SDS011;73859;40.830;43.828;2024-01-27T05:28:45;41.50;;;20.88;;
83835;SDS011;73859;40.830;43.828;2024-01-27T05:31:13;38.15;;;18.70;;
83835;SDS011;73859;40.830;43.828;2024-01-27T05:33:40;43.30;;;20.10;;
83835;SDS011;73859;40.830;43.828;2024-01-27T05:36:09;45.28;;;21.05;;
83835;SDS011;73859;40.830;43.828;2024-01-27T05:38:36;49.40;;;23.05;;
83835;SDS011;73859;40.830;43.828;2024-01-27T05:41:04;39.35;;;18.55;;
83835;SDS011;73859;40.830;43.828;2024-01-27T05:43:31;38.13;;;17.50;;
83835;SDS011;73859;40.830;43.828;2024-01-27T05:45:59;35.55;;;17.73;;
83835;SDS011;73859;40.830;43.828;2024-01-27T05:48:26;38.88;;;19.92;;
83835;SDS011;73859;40.830;43.828;2024-01-27T05:50:54;43.95;;;19.63;;
83835;SDS011;73859;40.830;43.828;2024-01-27T05:53:23;39.80;;;18.67;;
83835;SDS011;73859;40.830;43.828;2024-01-27T05:55:51;46.90;;;21.30;;
83835;SDS011;73859;40.830;43.828;2024-01-27T05:58:20;52.67;;;22.85;;
83835;SDS011;73859;40.830;43.828;2024-01-27T06:00:51;45.60;;;22.70;;
83835;SDS011;73859;40.830;43.828;2024-01-27T06:03:18;44.40;;;22.42;;
83835;SDS011;73859;40.830;43.828;2024-01-27T06:05:46;47.70;;;23.48;;
83835;SDS011;73859;40.830;43.828;2024-01-27T06:08:14;53.10;;;23.98;;
83835;SDS011;73859;40.830;43.828;2024-01-27T06:10:41;51.65;;;25.25;;
83835;SDS011;73859;40.830;43.828;2024-01-27T06:13:09;50.55;;;22.65;;
83835;SDS011;73859;40.830;43.828;2024-01-27T06:15:36;45.35;;;22.63;;
83835;SDS011;73859;40.830;43.828;2024-01-27T06:18:04;49.05;;;22.88;;
83835;SDS011;73859;40.830;43.828;2024-01-27T06:20:32;48.55;;;23.42;;
83835;SDS011;73859;40.830;43.828;2024-01-27T06:22:59;44.33;;;21.67;;
83835;SDS011;73859;40.830;43.828;2024-01-27T06:25:27;49.78;;;23.65;;
83835;SDS011;73859;40.830;43.828;2024-01-27T06:27:54;48.20;;;24.48;;
83835;SDS011;73859;40.830;43.828;2024-01-27T06:30:22;46.15;;;21.42;;
83835;SDS011;73859;40.830;43.828;2024-01-27T06:32:49;47.40;;;20.88;;
83835;SDS011;73859;40.830;43.828;2024-01-27T06:35:17;45.42;;;23.17;;
83835;SDS011;73859;40.830;43.828;2024-01-27T06:37:44;46.22;;;21.13;;
83835;SDS011;73859;40.830;43.828;2024-01-27T06:40:12;44.88;;;22.17;;
83835;SDS011;73859;40.830;43.828;2024-01-27T06:42:40;41.75;;;21.98;;
83835;SDS011;73859;40.830;43.828;2024-01-27T06:45:07;51.50;;;24.17;;
83835;SDS011;73859;40.830;43.828;2024-01-27T06:47:35;56.42;;;25.75;;
83835;SDS011;73859;40.830;43.828;2024-01-27T06:50:03;41.78;;;22.45;;
83835;SDS011;73859;40.830;43.828;2024-01-27T06:52:31;46.42;;;23.48;;
83835;SDS011;73859;40.830;43.828;2024-01-27T06:54:59;55.95;;;31.08;;
83835;SDS011;73859;40.830;43.828;2024-01-27T06:57:26;55.35;;;27.73;;
83835;SDS011;73859;40.830;43.828;2024-01-27T06:59:54;56.45;;;28.00;;
83835;SDS011;73859;40.830;43.828;2024-01-27T07:02:23;57.22;;;27.13;;
83835;SDS011;73859;40.830;43.828;2024-01-27T07:04:55;55.95;;;25.05;;
83835;SDS011;73859;40.830;43.828;2024-01-27T07:07:24;46.28;;;24.35;;
83835;SDS011;73859;40.830;43.828;2024-01-27T07:09:57;54.00;;;28.25;;
83835;SDS011;73859;40.830;43.828;2024-01-27T07:12:25;57.22;;;27.02;;
83835;SDS011;73859;40.830;43.828;2024-01-27T07:14:53;56.92;;;30.45;;
83835;SDS011;73859;40.830;43.828;2024-01-27T07:17:24;58.22;;;28.73;;
83835;SDS011;73859;40.830;43.828;2024-01-27T07:19:51;55.75;;;29.40;;
83835;SDS011;73859;40.830;43.828;2024-01-27T07:22:22;50.28;;;24.98;;
83835;SDS011;73859;40.830;43.828;2024-01-27T07:24:51;43.60;;;23.75;;
83835;SDS011;73859;40.830;43.828;2024-01-27T07:27:18;46.28;;;22.85;;
83835;SDS011;73859;40.830;43.828;2024-01-27T07:29:46;45.33;;;22.65;;
83835;SDS011;73859;40.830;43.828;2024-01-27T07:32:13;34.67;;;17.92;;
83835;SDS011;73859;40.830;43.828;2024-01-27T07:34:42;32.05;;;16.38;;
83835;SDS011;73859;40.830;43.828;2024-01-27T07:37:10;31.20;;;17.60;;
83835;SDS011;73859;40.830;43.828;2024-01-27T07:39:38;30.65;;;16.60;;
83835;SDS011;73859;40.830;43.828;2024-01-27T07:42:05;22.58;;;12.27;;
83835;SDS011;73859;40.830;43.828;2024-01-27T07:44:34;24.50;;;12.60;;
83835;SDS011;73859;40.830;43.828;2024-01-27T07:47:02;25.85;;;13.55;;
83835;SDS011;73859;40.830;43.828;2024-01-27T07:49:29;25.30;;;15.55;;
83835;SDS011;73859;40.830;43.828;2024-01-27T07:51:57;28.40;;;14.02;;
83835;SDS011;73859;40.830;43.828;2024-01-27T07:54:25;27.65;;;13.90;;
83835;SDS011;73859;40.830;43.828;2024-01-27T07:56:52;23.00;;;13.27;;
83835;SDS011;73859;40.830;43.828;2024-01-27T07:59:20;29.13;;;16.20;;
83835;SDS011;73859;40.830;43.828;2024-01-27T08:01:48;31.83;;;16.70;;
83835;SDS011;73859;40.830;43.828;2024-01-27T08:04:15;32.45;;;15.40;;
83835;SDS011;73859;40.830;43.828;2024-01-27T08:06:47;32.17;;;16.50;;
83835;SDS011;73859;40.830;43.828;2024-01-27T08:09:16;33.22;;;17.77;;
83835;SDS011;73859;40.830;43.828;2024-01-27T08:11:44;30.25;;;16.00;;
83835;SDS011;73859;40.830;43.828;2024-01-27T08:14:12;16.83;;;9.15;;
83835;SDS011;73859;40.830;43.828;2024-01-27T08:16:39;28.17;;;14.88;;
83835;SDS011;73859;40.830;43.828;2024-01-27T08:19:07;36.30;;;17.80;;
83835;SDS011;73859;40.830;43.828;2024-01-27T08:21:34;34.40;;;18.00;;
83835;SDS011;73859;40.830;43.828;2024-01-27T08:24:02;31.10;;;17.73;;
83835;SDS011;73859;40.830;43.828;2024-01-27T08:26:30;31.65;;;16.27;;
83835;SDS011;73859;40.830;43.828;2024-01-27T08:28:57;38.38;;;19.02;;
83835;SDS011;73859;40.830;43.828;2024-01-27T08:31:25;35.03;;;17.35;;
83835;SDS011;73859;40.830;43.828;2024-01-27T08:33:52;34.35;;;18.50;;
83835;SDS011;73859;40.830;43.828;2024-01-27T08:36:20;26.65;;;14.52;;
83835;SDS011;73859;40.830;43.828;2024-01-27T08:38:48;26.65;;;14.40;;
83835;SDS011;73859;40.830;43.828;2024-01-27T08:41:15;21.50;;;12.05;;
83835;SDS011;73859;40.830;43.828;2024-01-27T08:43:42;16.13;;;9.48;;
83835;SDS011;73859;40.830;43.828;2024-01-27T08:46:10;19.85;;;10.75;;
83835;SDS011;73859;40.830;43.828;2024-01-27T08:48:39;11.68;;;7.00;;
83835;SDS011;73859;40.830;43.828;2024-01-27T08:51:09;10.93;;;6.63;;
83835;SDS011;73859;40.830;43.828;2024-01-27T08:53:37;9.05;;;5.78;;
83835;SDS011;73859;40.830;43.828;2024-01-27T08:56:04;13.25;;;7.32;;
83835;SDS011;73859;40.830;43.828;2024-01-27T08:58:32;9.48;;;6.05;;
83835;SDS011;73859;40.830;43.828;2024-01-27T09:00:59;10.88;;;6.57;;
83835;SDS011;73859;40.830;43.828;2024-01-27T09:03:32;9.68;;;6.03;;
83835;SDS011;73859;40.830;43.828;2024-01-27T09:06:00;11.45;;;6.82;;
83835;SDS011;73859;40.830;43.828;2024-01-27T09:08:27;28.00;;;15.13;;
83835;SDS011;73859;40.830;43.828;2024-01-27T09:10:55;37.53;;;19.73;;
83835;SDS011;73859;40.830;43.828;2024-01-27T09:13:22;37.15;;;19.75;;
83835;SDS011;73859;40.830;43.828;2024-01-27T09:15:50;39.63;;;21.45;;
83835;SDS011;73859;40.830;43.828;2024-01-27T09:18:17;39.03;;;19.73;;
83835;SDS011;73859;40.830;43.828;2024-01-27T09:20:45;43.00;;;21.42;;
83835;SDS011;73859;40.830;43.828;2024-01-27T09:23:13;41.50;;;22.33;;
83835;SDS011;73859;40.830;43.828;2024-01-27T09:25:40;40.40;;;21.00;;
83835;SDS011;73859;40.830;43.828;2024-01-27T09:28:08;43.00;;;22.35;;
83835;SDS011;73859;40.830;43.828;2024-01-27T09:30:35;36.10;;;19.95;;
83835;SDS011;73859;40.830;43.828;2024-01-27T09:33:05;37.35;;;19.60;;
83835;SDS011;73859;40.830;43.828;2024-01-27T09:35:33;36.75;;;21.00;;
83835;SDS011;73859;40.830;43.828;2024-01-27T09:38:01;35.60;;;19.58;;
83835;SDS011;73859;40.830;43.828;2024-01-27T09:40:28;36.17;;;19.75;;
83835;SDS011;73859;40.830;43.828;2024-01-27T09:42:57;35.83;;;19.95;;
83835;SDS011;73859;40.830;43.828;2024-01-27T09:45:26;29.60;;;16.98;;
83835;SDS011;73859;40.830;43.828;2024-01-27T09:47:56;32.03;;;16.50;;
83835;SDS011;73859;40.830;43.828;2024-01-27T09:50:27;20.63;;;11.23;;
83835;SDS011;73859;40.830;43.828;2024-01-27T09:52:55;15.13;;;8.95;;
83835;SDS011;73859;40.830;43.828;2024-01-27T09:55:23;22.40;;;12.63;;
83835;SDS011;73859;40.830;43.828;2024-01-27T09:57:50;22.95;;;11.75;;
83835;SDS011;73859;40.830;43.828;2024-01-27T10:00:19;24.50;;;11.45;;
83835;SDS011;73859;40.830;43.828;2024-01-27T10:02:46;20.80;;;12.57;;
83835;SDS011;73859;40.830;43.828;2024-01-27T10:05:15;22.95;;;11.85;;
83835;SDS011;73859;40.830;43.828;2024-01-27T10:07:45;16.58;;;9.07;;
83835;SDS011;73859;40.830;43.828;2024-01-27T10:10:13;10.07;;;6.68;;
83835;SDS011;73859;40.830;43.828;2024-01-27T10:12:41;16.38;;;8.15;;
83835;SDS011;73859;40.830;43.828;2024-01-27T10:15:19;8.93;;;5.97;;
83835;SDS011;73859;40.830;43.828;2024-01-27T10:17:48;11.45;;;6.70;;
83835;SDS011;73859;40.830;43.828;2024-01-27T10:20:15;11.18;;;6.18;;
83835;SDS011;73859;40.830;43.828;2024-01-27T10:22:46;11.35;;;6.35;;
83835;SDS011;73859;40.830;43.828;2024-01-27T10:25:13;10.60;;;6.88;;
83835;SDS011;73859;40.830;43.828;2024-01-27T10:27:42;10.13;;;6.47;;
83835;SDS011;73859;40.830;43.828;2024-01-27T10:30:17;11.35;;;6.00;;
83835;SDS011;73859;40.830;43.828;2024-01-27T10:32:55;9.98;;;6.50;;
83835;SDS011;73859;40.830;43.828;2024-01-27T10:35:27;12.63;;;7.43;;
83835;SDS011;73859;40.830;43.828;2024-01-27T10:37:55;12.05;;;7.75;;
83835;SDS011;73859;40.830;43.828;2024-01-27T10:40:25;9.52;;;6.40;;
83835;SDS011;73859;40.830;43.828;2024-01-27T10:43:00;8.43;;;5.65;;
83835;SDS011;73859;40.830;43.828;2024-01-27T10:45:32;9.38;;;5.88;;
83835;SDS011;73859;40.830;43.828;2024-01-27T10:48:03;26.98;;;19.20;;
83835;SDS011;73859;40.830;43.828;2024-01-27T10:50:34;8.02;;;5.10;;
83835;SDS011;73859;40.830;43.828;2024-01-27T10:53:44;8.75;;;5.55;;
83835;SDS011;73859;40.830;43.828;2024-01-27T10:56:06;8.43;;;5.55;;
83835;SDS011;73859;40.830;43.828;2024-01-27T10:58:37;8.05;;;4.78;;
83835;SDS011;73859;40.830;43.828;2024-01-27T11:01:10;10.43;;;6.03;;
83835;SDS011;73859;40.830;43.828;2024-01-27T11:03:41;8.95;;;5.60;;
83835;SDS011;73859;40.830;43.828;2024-01-27T11:06:10;7.97;;;5.10;;
83835;SDS011;73859;40.830;43.828;2024-01-27T11:08:40;10.15;;;6.13;;
83835;SDS011;73859;40.830;43.828;2024-01-27T11:11:10;8.20;;;5.20;;
83835;SDS011;73859;40.830;43.828;2024-01-27T11:13:38;6.07;;;4.07;;
83835;SDS011;73859;40.830;43.828;2024-01-27T11:16:12;6.90;;;4.35;;
83835;SDS011;73859;40.830;43.828;2024-01-27T11:18:44;5.88;;;4.22;;
83835;SDS011;73859;40.830;43.828;2024-01-27T11:21:16;7.95;;;4.35;;
83835;SDS011;73859;40.830;43.828;2024-01-27T11:23:44;5.93;;;3.95;;
83835;SDS011;73859;40.830;43.828;2024-01-27T11:26:20;8.30;;;4.38;;
83835;SDS011;73859;40.830;43.828;2024-01-27T11:28:49;7.25;;;4.32;;
83835;SDS011;73859;40.830;43.828;2024-01-27T11:31:19;6.80;;;4.13;;
83835;SDS011;73859;40.830;43.828;2024-01-27T11:33:47;7.22;;;4.80;;
83835;SDS011;73859;40.830;43.828;2024-01-27T11:36:21;5.13;;;3.80;;
83835;SDS011;73859;40.830;43.828;2024-01-27T11:38:51;6.38;;;3.63;;
83835;SDS011;73859;40.830;43.828;2024-01-27T11:41:28;4.60;;;2.20;;
83835;SDS011;73859;40.830;43.828;2024-01-27T11:43:57;5.10;;;2.75;;
83835;SDS011;73859;40.830;43.828;2024-01-27T11:46:29;4.40;;;2.88;;
83835;SDS011;73859;40.830;43.828;2024-01-27T11:48:56;8.88;;;3.90;;
83835;SDS011;73859;40.830;43.828;2024-01-27T11:51:24;4.28;;;2.58;;
83835;SDS011;73859;40.830;43.828;2024-01-27T11:53:52;3.30;;;2.30;;
83835;SDS011;73859;40.830;43.828;2024-01-27T11:56:19;3.97;;;2.47;;
83835;SDS011;73859;40.830;43.828;2024-01-27T11:58:48;3.15;;;2.15;;
83835;SDS011;73859;40.830;43.828;2024-01-27T12:01:17;4.75;;;2.72;;
83835;SDS011;73859;40.830;43.828;2024-01-27T12:03:44;9.05;;;4.47;;
83835;SDS011;73859;40.830;43.828;2024-01-27T12:06:13;8.07;;;4.07;;
83835;SDS011;73859;40.830;43.828;2024-01-27T12:08:42;6.07;;;3.63;;
83835;SDS011;73859;40.830;43.828;2024-01-27T12:11:16;4.43;;;3.22;;
83835;SDS011;73859;40.830;43.828;2024-01-27T12:13:50;4.45;;;2.67;;
83835;SDS011;73859;40.830;43.828;2024-01-27T12:16:21;4.13;;;2.80;;
83835;SDS011;73859;40.830;43.828;2024-01-27T12:18:53;2.58;;;1.88;;
83835;SDS011;73859;40.830;43.828;2024-01-27T12:21:22;2.55;;;1.92;;
83835;SDS011;73859;40.830;43.828;2024-01-27T12:23:54;4.07;;;2.13;;
83835;SDS011;73859;40.830;43.828;2024-01-27T12:26:27;3.30;;;1.73;;
83835;SDS011;73859;40.830;43.828;2024-01-27T12:28:56;3.30;;;2.00;;
83835;SDS011;73859;40.830;43.828;2024-01-27T12:33:53;4.80;;;2.30;;
83835;SDS011;73859;40.830;43.828;2024-01-27T12:36:23;4.85;;;2.58;;
83835;SDS011;73859;40.830;43.828;2024-01-27T12:38:57;4.25;;;2.50;;
83835;SDS011;73859;40.830;43.828;2024-01-27T12:41:28;3.83;;;2.38;;
83835;SDS011;73859;40.830;43.828;2024-01-27T12:44:01;6.55;;;3.13;;
83835;SDS011;73859;40.830;43.828;2024-01-27T12:46:29;6.35;;;3.28;;
83835;SDS011;73859;40.830;43.828;2024-01-27T12:48:56;3.10;;;2.00;;
83835;SDS011;73859;40.830;43.828;2024-01-27T12:51:24;3.42;;;2.58;;
83835;SDS011;73859;40.830;43.828;2024-01-27T12:53:51;3.45;;;1.90;;
83835;SDS011;73859;40.830;43.828;2024-01-27T12:56:19;4.43;;;2.38;;
83835;SDS011;73859;40.830;43.828;2024-01-27T12:58:46;3.95;;;2.55;;
83835;SDS011;73859;40.830;43.828;2024-01-27T13:01:14;3.92;;;2.33;;
83835;SDS011;73859;40.830;43.828;2024-01-27T13:03:42;5.68;;;2.58;;
83835;SDS011;73859;40.830;43.828;2024-01-27T13:06:11;5.90;;;2.90;;
83835;SDS011;73859;40.830;43.828;2024-01-27T13:11:08;4.47;;;2.42;;
83835;SDS011;73859;40.830;43.828;2024-01-27T13:13:36;5.05;;;3.17;;
83835;SDS011;73859;40.830;43.828;2024-01-27T13:16:04;4.47;;;2.78;;
83835;SDS011;73859;40.830;43.828;2024-01-27T13:18:32;3.92;;;2.63;;
83835;SDS011;73859;40.830;43.828;2024-01-27T13:21:00;5.63;;;2.72;;
83835;SDS011;73859;40.830;43.828;2024-01-27T13:23:27;5.32;;;3.53;;
83835;SDS011;73859;40.830;43.828;2024-01-27T13:25:55;5.93;;;3.70;;
83835;SDS011;73859;40.830;43.828;2024-01-27T13:28:42;5.00;;;2.90;;
83835;SDS011;73859;40.830;43.828;2024-01-27T13:31:10;6.90;;;4.55;;
83835;SDS011;73859;40.830;43.828;2024-01-27T13:33:37;8.07;;;3.70;;
83835;SDS011;73859;40.830;43.828;2024-01-27T13:36:06;7.32;;;4.03;;
83835;SDS011;73859;40.830;43.828;2024-01-27T13:38:34;8.23;;;4.45;;
83835;SDS011;73859;40.830;43.828;2024-01-27T13:41:02;7.97;;;3.58;;
83835;SDS011;73859;40.830;43.828;2024-01-27T13:43:30;7.10;;;3.70;;
83835;SDS011;73859;40.830;43.828;2024-01-27T13:45:58;6.32;;;3.53;;
83835;SDS011;73859;40.830;43.828;2024-01-27T13:48:25;4.78;;;3.28;;
83835;SDS011;73859;40.830;43.828;2024-01-27T13:50:53;5.40;;;3.08;;
83835;SDS011;73859;40.830;43.828;2024-01-27T13:53:21;3.88;;;2.50;;
83835;SDS011;73859;40.830;43.828;2024-01-27T13:55:57;6.60;;;3.05;;
83835;SDS011;73859;40.830;43.828;2024-01-27T13:58:24;8.80;;;5.07;;
83835;SDS011;73859;40.830;43.828;2024-01-27T14:00:52;16.45;;;8.88;;
83835;SDS011;73859;40.830;43.828;2024-01-27T14:03:19;13.32;;;8.18;;
83835;SDS011;73859;40.830;43.828;2024-01-27T14:05:47;22.52;;;10.15;;
83835;SDS011;73859;40.830;43.828;2024-01-27T14:08:15;24.75;;;13.30;;
83835;SDS011;73859;40.830;43.828;2024-01-27T14:10:44;23.50;;;13.02;;
83835;SDS011;73859;40.830;43.828;2024-01-27T14:13:12;26.90;;;14.68;;
83835;SDS011;73859;40.830;43.828;2024-01-27T14:15:39;28.25;;;14.95;;
83835;SDS011;73859;40.830;43.828;2024-01-27T14:18:07;31.05;;;17.65;;
83835;SDS011;73859;40.830;43.828;2024-01-27T14:20:36;30.65;;;14.88;;
83835;SDS011;73859;40.830;43.828;2024-01-27T14:23:04;26.40;;;14.65;;
83835;SDS011;73859;40.830;43.828;2024-01-27T14:25:32;27.30;;;15.35;;
83835;SDS011;73859;40.830;43.828;2024-01-27T14:27:59;27.80;;;13.13;;
83835;SDS011;73859;40.830;43.828;2024-01-27T14:30:26;27.33;;;14.77;;